Time;durP1;ratioP1;P1;durP2;ratioP2;P2;SDS_P1;SDS_P2;PMS_P1;PMS_P2;Temp;Humidity;BMP_temperature;BMP_pressure;BME280_temperature;BME280_humidity;BME280_pressure;Samples;Min_cycle;Max_cycle;Signal;HPM_P1;HPM_P2
2022/10/11 00:00:44;;;;;;;13.88;5.80;;;;;;;16.34;77.40;101309.28;5033387;28;20381;-70
2022/10/11 00:03:13;;;;;;;11.45;5.93;;;;;;;16.27;78.00;101308.84;5033345;28;20393;-70
2022/10/11 00:05:53;;;;;;;9.63;5.72;;;;;;;16.28;77.90;101310.47;5067913;27;20387;-68
2022/10/11 00:08:32;;;;;;;13.23;5.63;;;;;;;16.27;77.88;101309.66;5110189;27;20735;-68
2022/10/11 00:11:22;;;;;;;8.25;5.53;;;;;;;16.20;78.30;101306.44;5089874;28;20386;-68
2022/10/11 00:14:13;;;;;;;11.02;6.13;;;;;;;16.32;77.27;101306.00;4959516;27;5076837;-68
2022/10/11 00:16:53;;;;;;;13.93;6.95;;;;;;;16.30;77.25;101314.59;5110148;27;20407;-68
2022/10/11 00:19:32;;;;;;;12.13;5.93;;;;;;;16.29;78.02;101304.66;5107926;27;20386;-68
2022/10/11 00:22:12;;;;;;;9.52;6.20;;;;;;;16.29;77.46;101307.41;5110128;27;20380;-68
2022/10/11 00:24:51;;;;;;;10.88;5.88;;;;;;;16.31;77.54;101305.16;5069373;28;20390;-68
2022/10/11 00:27:33;;;;;;;12.90;6.53;;;;;;;16.24;77.43;101304.75;5069508;28;20391;-68
2022/10/11 00:30:12;;;;;;;9.75;6.07;;;;;;;16.20;78.74;101310.03;5064167;28;20417;-68
2022/10/11 00:32:51;;;;;;;10.45;6.63;;;;;;;16.21;77.56;101308.91;5069496;28;20383;-68
2022/10/11 00:35:29;;;;;;;9.57;6.07;;;;;;;16.19;77.86;101307.56;5069620;28;20394;-68
2022/10/11 00:38:07;;;;;;;9.38;5.82;;;;;;;16.12;78.38;101305.19;5110030;27;20878;-68
2022/10/11 00:40:46;;;;;;;11.68;6.60;;;;;;;16.11;77.90;101306.31;5069646;27;20379;-68
2022/10/11 00:43:27;;;;;;;11.82;6.63;;;;;;;16.14;78.15;101297.44;5109799;27;20395;-68
2022/10/11 00:46:27;;;;;;;8.98;5.75;;;;;;;16.15;78.42;101301.00;5076603;28;20389;-68
2022/10/11 00:49:26;;;;;;;7.50;5.50;;;;;;;16.12;78.43;101297.72;5069596;28;20386;-68
2022/10/11 00:52:14;;;;;;;12.65;6.40;;;;;;;16.08;78.36;101302.22;5112146;27;20739;-68
2022/10/11 00:54:57;;;;;;;13.05;6.45;;;;;;;16.03;78.47;101305.03;5110086;27;20227;-68
2022/10/11 00:57:40;;;;;;;9.75;5.82;;;;;;;16.04;79.51;101306.69;5110172;27;20904;-68
2022/10/11 01:00:19;;;;;;;10.18;6.65;;;;;;;16.02;78.76;101300.66;5110055;27;20727;-68
2022/10/11 01:02:59;;;;;;;13.55;6.78;;;;;;;15.99;79.17;101298.50;5069551;28;20390;-68
2022/10/11 01:05:38;;;;;;;12.68;7.20;;;;;;;15.99;79.26;101304.81;5069396;27;20881;-68
2022/10/11 01:08:19;;;;;;;12.40;7.28;;;;;;;16.08;78.93;101301.41;5110095;27;20403;-68
2022/10/11 01:10:58;;;;;;;12.73;6.32;;;;;;;16.11;79.21;101301.63;5109945;27;20380;-68
2022/10/11 01:13:39;;;;;;;9.07;5.82;;;;;;;16.13;79.40;101295.78;5070379;28;20387;-68
2022/10/11 01:16:30;;;;;;;10.43;6.03;;;;;;;16.06;78.68;101298.09;5109941;27;20376;-68
2022/10/11 01:19:09;;;;;;;10.35;5.75;;;;;;;16.05;78.53;101299.22;5110191;27;20870;-68
2022/10/11 01:21:50;;;;;;;11.88;6.28;;;;;;;16.04;79.08;101295.63;5110056;27;20385;-68
2022/10/11 01:24:56;;;;;;;11.95;6.15;;;;;;;16.04;80.05;101301.16;5089535;28;20122;-68
2022/10/11 01:27:59;;;;;;;10.40;6.35;;;;;;;16.00;79.78;101294.63;5070064;28;20390;-68
2022/10/11 01:30:38;;;;;;;12.55;6.43;;;;;;;15.90;79.94;101292.81;5069598;28;20382;-68
2022/10/11 01:33:23;;;;;;;8.63;5.93;;;;;;;15.94;80.22;101293.84;5109921;27;20395;-68
2022/10/11 01:36:08;;;;;;;9.07;6.10;;;;;;;15.96;79.89;101293.56;5110078;27;20380;-68
2022/10/11 01:38:52;;;;;;;7.60;5.65;;;;;;;15.96;80.96;101293.56;5110148;27;20376;-69
2022/10/11 01:41:45;;;;;;;10.00;6.13;;;;;;;15.95;80.37;101283.66;5110048;27;20380;-68
2022/10/11 01:44:25;;;;;;;13.32;6.53;;;;;;;15.93;80.30;101286.69;5109856;27;20893;-68
2022/10/11 01:47:04;;;;;;;12.43;6.72;;;;;;;15.90;80.44;101283.69;5110018;27;20395;-68
2022/10/11 01:49:44;;;;;;;7.70;5.68;;;;;;;15.91;80.50;101290.84;5069397;28;20394;-68
2022/10/11 01:52:26;;;;;;;11.73;6.22;;;;;;;15.87;80.61;101287.88;5110162;27;20384;-68
2022/10/11 01:55:46;;;;;;;12.68;5.93;;;;;;;15.92;80.59;101275.91;5110209;27;20388;-68
2022/10/11 01:58:44;;;;;;;12.23;5.85;;;;;;;15.91;80.05;101279.81;5109971;27;20396;-68
2022/10/11 02:01:21;;;;;;;13.48;6.72;;;;;;;15.85;80.12;101279.88;5070972;28;20391;-68
2022/10/11 02:04:36;;;;;;;9.13;6.63;;;;;;;15.81;80.78;101265.06;5055368;28;20379;-68
2022/10/11 02:07:27;;;;;;;8.07;5.93;;;;;;;15.75;81.18;101269.00;5056589;28;20388;-69
2022/10/11 02:10:34;;;;;;;10.57;5.47;;;;;;;15.70;80.69;101269.09;5109819;27;20387;-68
2022/10/11 02:13:22;;;;;;;10.15;6.13;;;;;;;15.74;80.38;101261.81;5130601;27;20639;-68
2022/10/11 02:16:05;;;;;;;12.38;5.90;;;;;;;15.65;81.30;101258.91;5069463;28;20379;-68
2022/10/11 02:18:48;;;;;;;10.00;6.43;;;;;;;15.65;81.48;101256.16;5069570;27;20391;-68
2022/10/11 02:21:30;;;;;;;10.20;5.95;;;;;;;15.69;81.45;101256.41;5109806;27;20381;-69
2022/10/11 02:24:21;;;;;;;13.75;6.47;;;;;;;15.61;81.50;101257.91;5110097;27;20387;-68
2022/10/11 02:27:02;;;;;;;13.15;7.25;;;;;;;15.64;81.68;101249.00;5089807;28;20378;-68
2022/10/11 02:29:44;;;;;;;9.35;6.20;;;;;;;15.61;81.30;101249.63;5110042;27;20712;-68
2022/10/11 02:32:24;;;;;;;8.85;5.97;;;;;;;15.68;81.23;101246.47;5109930;27;20826;-68
2022/10/11 02:35:04;;;;;;;12.15;6.45;;;;;;;15.61;81.02;101248.78;5110001;27;20375;-68
2022/10/11 02:37:57;;;;;;;9.70;6.25;;;;;;;15.57;81.72;101243.88;5110057;27;21091;-68
2022/10/11 02:40:43;;;;;;;12.40;6.05;;;;;;;15.54;81.90;101247.22;5081815;28;20399;-68
2022/10/11 02:43:31;;;;;;;14.30;6.22;;;;;;;15.52;81.84;101252.22;5069493;28;20379;-68
2022/10/11 02:46:11;;;;;;;9.05;5.93;;;;;;;15.61;81.91;101246.03;5110048;27;20129;-68
2022/10/11 02:48:50;;;;;;;9.13;6.07;;;;;;;15.55;81.46;101242.53;5069436;28;20379;-69
2022/10/11 02:51:30;;;;;;;11.30;6.20;;;;;;;15.57;81.49;101243.03;5110146;27;20384;-68
2022/10/11 02:54:09;;;;;;;11.50;6.53;;;;;;;15.57;81.88;101243.88;5110296;27;20384;-68
2022/10/11 02:56:47;;;;;;;11.57;5.70;;;;;;;15.51;81.66;101241.47;5069387;28;20389;-69
2022/10/11 02:59:25;;;;;;;9.95;5.75;;;;;;;15.49;81.23;101239.00;5069566;28;20383;-68
2022/10/11 03:02:03;;;;;;;9.48;6.32;;;;;;;15.51;82.21;101233.22;5069462;28;20383;-68
2022/10/11 03:04:43;;;;;;;9.75;6.07;;;;;;;15.43;82.63;101246.56;5069569;27;20379;-68
2022/10/11 03:07:22;;;;;;;12.38;6.65;;;;;;;15.44;82.91;101245.44;5083110;27;20470;-68
2022/10/11 03:10:00;;;;;;;10.65;6.85;;;;;;;15.41;83.24;101240.50;5069594;28;20877;-68
2022/10/11 03:12:38;;;;;;;8.57;5.82;;;;;;;15.39;82.17;101233.66;5109819;27;20750;-68
2022/10/11 03:15:16;;;;;;;10.23;5.68;;;;;;;15.37;82.49;101233.13;5069873;28;20387;-68
2022/10/11 03:17:54;;;;;;;8.75;6.05;;;;;;;15.34;82.67;101239.25;5069457;28;20379;-68
2022/10/11 03:20:32;;;;;;;10.25;6.13;;;;;;;15.36;82.59;101248.03;5069693;28;20379;-68
2022/10/11 03:23:12;;;;;;;14.02;7.03;;;;;;;15.30;83.25;101248.09;5069506;27;20378;-69
2022/10/11 03:25:51;;;;;;;9.40;5.68;;;;;;;15.27;83.53;101245.09;5110107;27;20392;-68
2022/10/11 03:28:29;;;;;;;10.57;6.00;;;;;;;15.32;83.07;101251.34;5109987;27;20388;-69
2022/10/11 03:31:07;;;;;;;10.35;6.32;;;;;;;15.31;83.28;101244.22;5110134;27;20391;-68
2022/10/11 03:33:47;;;;;;;10.23;6.70;;;;;;;15.24;84.13;101248.47;5069411;28;20390;-68
2022/10/11 03:36:26;;;;;;;10.85;6.35;;;;;;;15.29;83.27;101254.72;5109724;27;20380;-69
2022/10/11 03:39:05;;;;;;;9.18;6.43;;;;;;;15.36;83.06;101256.28;5110152;27;20379;-68
2022/10/11 03:41:43;;;;;;;12.85;6.57;;;;;;;15.35;82.76;101249.16;5109954;27;20384;-68
2022/10/11 03:44:21;;;;;;;14.73;6.88;;;;;;;15.31;82.27;101259.94;5110088;27;20388;-68
2022/10/11 03:46:59;;;;;;;10.32;6.03;;;;;;;15.24;83.50;101254.78;5069441;28;20389;-68
2022/10/11 03:49:38;;;;;;;11.30;6.18;;;;;;;15.30;83.14;101248.09;5110182;27;20391;-68
2022/10/11 03:52:20;;;;;;;13.32;6.45;;;;;;;15.34;82.89;101261.31;5110387;27;20384;-68
2022/10/11 03:54:59;;;;;;;10.65;5.97;;;;;;;15.30;83.16;101244.53;5110147;27;20376;-68
2022/10/11 03:57:37;;;;;;;10.63;6.63;;;;;;;15.34;82.83;101255.78;5109996;27;20904;-68
2022/10/11 04:00:15;;;;;;;9.25;6.03;;;;;;;15.36;82.39;101254.38;5069554;27;20382;-68
2022/10/11 04:02:53;;;;;;;9.82;6.00;;;;;;;15.38;82.60;101248.53;5073531;27;20390;-68
2022/10/11 04:05:31;;;;;;;8.60;5.97;;;;;;;15.35;82.44;101247.19;5109923;27;20383;-68
2022/10/11 04:08:18;;;;;;;13.02;5.53;;;;;;;15.36;83.72;101243.34;5091691;28;20059;-68
2022/10/11 04:10:56;;;;;;;9.80;6.45;;;;;;;15.42;83.17;101246.84;5069427;28;20379;-68
2022/10/11 04:13:35;;;;;;;12.88;6.70;;;;;;;15.53;81.69;101248.34;5109741;27;20401;-68
2022/10/11 04:16:14;;;;;;;10.65;6.30;;;;;;;15.59;81.49;101246.31;5069376;28;20391;-68
2022/10/11 04:18:52;;;;;;;9.65;5.93;;;;;;;15.49;81.50;101241.78;5110134;27;20866;-68
2022/10/11 04:21:30;;;;;;;11.23;5.72;;;;;;;15.38;83.11;101245.78;5069506;28;20382;-68
2022/10/11 04:24:10;;;;;;;10.32;6.07;;;;;;;15.29;82.57;101249.22;5109984;27;20410;-68
2022/10/11 04:26:48;;;;;;;9.98;5.97;;;;;;;15.35;82.84;101246.38;5063577;27;20388;-68
2022/10/11 04:29:27;;;;;;;8.82;5.55;;;;;;;15.27;82.88;101254.22;5069449;27;20390;-68
2022/10/11 04:32:10;;;;;;;12.63;6.25;;;;;;;15.23;82.93;101255.91;5069643;28;20877;-68
2022/10/11 04:34:48;;;;;;;11.73;6.30;;;;;;;15.28;83.20;101261.34;5069448;28;20391;-68
2022/10/11 04:37:26;;;;;;;9.63;6.07;;;;;;;15.37;82.36;101252.41;5109911;27;20889;-68
2022/10/11 04:40:06;;;;;;;8.70;5.75;;;;;;;15.26;82.39;101260.00;5110031;27;20383;-68
2022/10/11 04:42:45;;;;;;;8.27;5.88;;;;;;;15.27;82.16;101262.47;5069530;28;20730;-68
2022/10/11 04:45:24;;;;;;;10.13;6.30;;;;;;;15.22;82.80;101256.19;5069450;27;20378;-68
2022/10/11 04:48:04;;;;;;;12.20;6.60;;;;;;;15.15;83.04;101259.31;5110311;27;20395;-68
2022/10/11 04:50:44;;;;;;;8.73;6.05;;;;;;;15.15;83.42;101264.84;5110026;27;20380;-73
2022/10/11 04:53:27;;;;;;;12.50;6.40;;;;;;;15.10;83.86;101267.66;5112992;27;20406;-73
2022/10/11 04:56:09;;;;;;;14.63;7.53;;;;;;;15.16;83.41;101267.28;5069383;28;20391;-73
2022/10/11 04:58:48;;;;;;;11.90;7.03;;;;;;;15.18;83.15;101269.75;5069278;28;20390;-73
2022/10/11 05:01:27;;;;;;;10.05;6.53;;;;;;;15.15;83.60;101275.88;5130918;27;20391;-72
2022/10/11 05:04:12;;;;;;;9.57;5.53;;;;;;;15.15;83.59;101278.63;5151334;27;20393;-72
2022/10/11 05:07:02;;;;;;;10.77;6.80;;;;;;;15.15;83.61;101267.59;5098503;27;20384;-73
2022/10/11 05:09:40;;;;;;;9.25;5.85;;;;;;;15.10;84.36;101271.22;5148197;27;20771;-74
2022/10/11 05:12:20;;;;;;;11.35;6.68;;;;;;;15.13;83.78;101272.56;5119795;27;20417;-74
2022/10/11 05:14:59;;;;;;;14.15;6.78;;;;;;;15.09;83.91;101271.50;5105796;27;20844;-73
2022/10/11 05:17:38;;;;;;;10.02;6.80;;;;;;;15.09;84.52;101275.09;5128448;27;20450;-72
2022/10/11 05:20:17;;;;;;;13.98;6.60;;;;;;;15.21;83.33;101280.19;5100028;27;20435;-72
2022/10/11 05:22:58;;;;;;;11.68;6.75;;;;;;;15.13;83.88;101278.06;5069126;28;20398;-72
2022/10/11 05:25:37;;;;;;;9.02;6.70;;;;;;;15.10;83.57;101276.72;5068336;28;20406;-72
2022/10/11 05:28:28;;;;;;;12.60;7.05;;;;;;;14.99;83.65;101276.03;5057718;28;20127;-76
2022/10/11 05:31:08;;;;;;;12.43;6.60;;;;;;;14.95;84.30;101272.22;5109180;27;20376;-76
2022/10/11 05:33:47;;;;;;;12.35;7.55;;;;;;;14.88;84.22;101271.75;5102983;27;20921;-75
2022/10/11 05:36:26;;;;;;;13.25;7.78;;;;;;;14.97;84.64;101275.53;5094286;27;20768;-75
2022/10/11 05:39:05;;;;;;;10.75;6.78;;;;;;;14.93;84.57;101274.44;5109985;27;20850;-75
2022/10/11 05:41:44;;;;;;;10.57;7.28;;;;;;;14.93;84.58;101268.94;5108571;27;20400;-76
2022/10/11 05:44:26;;;;;;;12.32;7.25;;;;;;;14.98;84.49;101282.66;5102551;27;20414;-76
2022/10/11 05:47:04;;;;;;;12.50;7.38;;;;;;;15.12;85.06;101287.47;5067393;28;20757;-68
2022/10/11 05:49:42;;;;;;;11.45;6.97;;;;;;;15.14;84.49;101279.72;5110325;27;20387;-68
2022/10/11 05:52:22;;;;;;;13.43;7.13;;;;;;;15.15;83.99;101284.13;5069148;28;20423;-68
2022/10/11 05:55:02;;;;;;;12.20;6.75;;;;;;;15.19;84.62;101298.97;5108100;27;20384;-67
2022/10/11 05:57:40;;;;;;;20.05;7.18;;;;;;;15.44;82.64;101291.47;5109329;27;20822;-67
2022/10/11 06:00:21;;;;;;;9.27;6.05;;;;;;;15.42;82.94;101308.34;5054836;28;20798;-68
2022/10/11 06:03:01;;;;;;;11.25;6.78;;;;;;;15.52;82.52;101304.63;5078031;27;20390;-67
2022/10/11 06:05:40;;;;;;;15.95;6.47;;;;;;;15.62;82.64;101308.34;5108687;27;20881;-67
2022/10/11 06:08:19;;;;;;;8.85;6.40;;;;;;;15.75;81.42;101313.16;5129546;27;20386;-68
2022/10/11 06:11:10;;;;;;;14.25;6.97;;;;;;;15.91;81.01;101307.41;5109035;27;20384;-69
2022/10/11 06:14:01;;;;;;;10.75;6.10;;;;;;;15.96;80.37;101315.66;5040842;28;20963;-67
2022/10/11 06:16:57;;;;;;;11.57;6.72;;;;;;;16.10;79.86;101321.25;5176674;27;20761;-67
2022/10/11 06:19:50;;;;;;;13.80;6.95;;;;;;;16.28;79.19;101316.81;5074086;27;20493;-67
2022/10/11 06:22:46;;;;;;;9.77;6.53;;;;;;;16.40;79.21;101321.88;5111407;27;21177;-67
2022/10/11 06:25:39;;;;;;;14.48;7.30;;;;;;;16.53;78.41;101318.31;5076165;27;20937;-68
2022/10/11 06:28:35;;;;;;;11.50;6.95;;;;;;;16.70;76.92;101327.16;5111558;27;20392;-67
2022/10/11 06:31:27;;;;;;;12.82;7.50;;;;;;;16.96;76.75;101323.94;5104092;27;20508;-67
2022/10/11 06:34:20;;;;;;;17.48;7.25;;;;;;;17.09;75.58;101331.47;5086083;27;20399;-67
2022/10/11 06:37:18;;;;;;;10.68;6.40;;;;;;;17.35;74.41;101335.69;5080109;27;20423;-67
2022/10/11 06:40:23;;;;;;;13.43;7.55;;;;;;;17.28;75.03;101339.69;5110176;27;20930;-68
2022/10/11 06:43:21;;;;;;;11.48;7.57;;;;;;;17.51;74.33;101344.47;5073271;27;20411;-69
2022/10/11 06:46:21;;;;;;;11.50;8.13;;;;;;;17.72;72.49;101350.41;5177975;27;20434;-67
2022/10/11 06:49:43;;;;;;;13.02;7.30;;;;;;;17.89;71.83;101344.19;5107444;27;20481;-69
2022/10/11 06:52:46;;;;;;;10.35;6.95;;;;;;;17.94;72.39;101357.13;5121290;27;20432;-67
2022/10/11 06:55:42;;;;;;;13.70;8.15;;;;;;;17.77;73.22;101355.81;5077812;27;20447;-67
2022/10/11 06:58:53;;;;;;;12.63;7.57;;;;;;;17.77;73.23;101357.75;5112804;27;20487;-68
2022/10/11 07:01:49;;;;;;;11.93;7.82;;;;;;;18.00;72.56;101362.22;5074374;27;20388;-67
2022/10/11 07:04:38;;;;;;;13.20;7.57;;;;;;;18.09;72.09;101365.09;5067779;28;20419;-68
2022/10/11 07:07:43;;;;;;;14.38;8.07;;;;;;;18.47;70.94;101369.50;5117373;27;20399;-68
2022/10/11 07:10:39;;;;;;;12.90;8.32;;;;;;;18.34;71.05;101351.78;5188710;27;20417;-68
2022/10/11 07:13:32;;;;;;;15.90;7.90;;;;;;;18.39;71.09;101361.94;5089883;27;20881;-68
2022/10/11 07:16:28;;;;;;;10.77;6.93;;;;;;;18.55;70.49;101367.91;5186485;27;20800;-69
2022/10/11 07:19:26;;;;;;;9.98;6.82;;;;;;;18.70;68.87;101368.66;5178968;27;20406;-70
2022/10/11 07:22:26;;;;;;;15.15;7.25;;;;;;;19.01;65.64;101373.44;5120289;27;20397;-70
2022/10/11 07:25:28;;;;;;;15.18;6.97;;;;;;;18.93;65.63;101372.22;5106626;27;20405;-69
2022/10/11 07:28:24;;;;;;;11.85;6.22;;;;;;;18.62;66.06;101371.06;5069488;27;20432;-70
2022/10/11 07:31:23;;;;;;;14.30;7.03;;;;;;;18.60;66.62;101372.50;5175127;27;20487;-69
2022/10/11 07:34:15;;;;;;;15.40;6.80;;;;;;;19.11;64.96;101375.13;5077551;27;20505;-70
2022/10/11 07:37:12;;;;;;;16.33;6.78;;;;;;;19.27;63.32;101368.03;5072991;27;20900;-70
2022/10/11 07:40:10;;;;;;;9.82;6.57;;;;;;;19.11;65.15;101372.34;5083755;27;20545;-70
2022/10/11 07:43:02;;;;;;;16.08;6.70;;;;;;;19.10;64.58;101384.59;5074720;27;20885;-68
2022/10/11 07:46:02;;;;;;;11.55;6.65;;;;;;;19.45;63.72;101382.78;5078720;27;20400;-67
2022/10/11 07:48:59;;;;;;;12.57;7.72;;;;;;;19.70;62.95;101376.81;5173681;27;20390;-69
2022/10/11 07:51:58;;;;;;;13.38;6.68;;;;;;;20.08;61.45;101384.56;5173514;27;20430;-70
2022/10/11 07:55:06;;;;;;;20.75;7.00;;;;;;;20.26;59.71;101390.13;5147345;27;20404;-70
2022/10/11 07:58:09;;;;;;;11.13;6.68;;;;;;;19.99;62.12;101383.75;5130085;27;20399;-70
2022/10/11 08:01:10;;;;;;;14.80;7.20;;;;;;;20.66;60.70;101381.59;5089504;27;20497;-70
2022/10/11 08:03:51;;;;;;;13.32;7.38;;;;;;;20.36;59.77;101387.03;4451701;27;18601362;-70
2022/10/11 08:06:46;;;;;;;11.00;7.32;;;;;;;20.36;60.15;101384.25;5080199;27;20870;-71
2022/10/11 08:09:46;;;;;;;13.77;6.78;;;;;;;20.31;60.62;101386.38;5118218;27;20390;-71
2022/10/11 08:12:46;;;;;;;15.85;7.13;;;;;;;20.84;59.68;101384.34;5088494;27;20460;-71
2022/10/11 08:15:38;;;;;;;12.15;6.70;;;;;;;20.62;57.56;101394.53;5075207;27;20958;-70
2022/10/11 08:18:36;;;;;;;11.65;6.50;;;;;;;21.03;57.57;101388.75;5191701;27;20531;-70
2022/10/11 08:21:29;;;;;;;12.35;7.38;;;;;;;21.08;58.36;101394.94;5089537;27;21072;-72
2022/10/11 08:24:30;;;;;;;15.68;7.70;;;;;;;21.25;56.85;101395.22;5142916;27;20752;-70
2022/10/11 08:27:30;;;;;;;15.85;7.40;;;;;;;21.24;56.14;101401.94;5089455;27;20483;-70
2022/10/11 08:30:32;;;;;;;13.65;7.78;;;;;;;21.87;54.68;101392.97;5093229;27;20381;-73
2022/10/11 08:33:28;;;;;;;13.07;7.45;;;;;;;21.53;56.41;101390.03;5089483;27;20560;-71
2022/10/11 08:36:38;;;;;;;13.65;7.13;;;;;;;21.88;55.13;101402.94;5130720;27;20399;-70
2022/10/11 08:39:15;;;;;;;13.07;7.40;;;;;;;22.24;53.27;101395.97;4300982;27;24025278;-72
2022/10/11 08:42:39;;;;;;;11.13;7.47;;;;;;;22.03;54.29;101401.53;5147286;27;20480;-71
2022/10/11 08:45:40;;;;;;;15.98;8.20;;;;;;;22.12;53.44;101401.47;5090526;27;20391;-65
2022/10/11 08:48:40;;;;;;;17.20;8.88;;;;;;;22.23;53.58;101405.50;5088803;27;20499;-70
2022/10/11 08:51:40;;;;;;;10.75;7.00;;;;;;;22.36;53.33;101402.75;5089145;27;20573;-70
2022/10/11 08:54:36;;;;;;;13.02;8.05;;;;;;;22.36;54.33;101411.13;5088243;27;21169;-71
2022/10/11 08:57:51;;;;;;;15.65;7.95;;;;;;;22.47;51.87;101403.16;5131019;27;20399;-73
2022/10/11 09:00:49;;;;;;;12.43;7.72;;;;;;;22.93;51.63;101395.66;5089833;27;20165;-72
2022/10/11 09:03:41;;;;;;;13.80;8.25;;;;;;;22.89;50.38;101405.09;5109204;27;20396;-73
2022/10/11 09:06:22;;;;;;;16.63;8.20;;;;;;;22.38;53.33;101394.88;5062561;28;20400;-72
2022/10/11 09:09:19;;;;;;;11.45;7.38;;;;;;;22.71;52.92;101398.84;5068431;28;20379;-72
2022/10/11 09:12:55;;;;;;;13.93;7.55;;;;;;;23.02;50.39;101397.56;5109039;27;20442;-70
2022/10/11 09:15:45;;;;;;;12.98;7.88;;;;;;;23.28;50.29;101397.25;5108469;27;20395;-70
2022/10/11 09:18:49;;;;;;;12.30;7.18;;;;;;;23.43;50.57;101383.78;5068583;28;20130;-71
2022/10/11 09:21:39;;;;;;;13.27;9.02;;;;;;;23.55;49.02;101392.16;5108748;27;20400;-70
2022/10/11 09:24:25;;;;;;;15.85;9.25;;;;;;;22.98;50.03;101382.66;5093875;27;1426890;-70
2022/10/11 09:26:55;;;;;;;15.63;9.07;;;;;;;23.45;49.58;101389.81;5114836;28;20039;-70
2022/10/11 09:29:32;;;;;;;15.70;8.82;;;;;;;23.83;48.68;101391.44;5129670;28;20401;-70
2022/10/11 09:32:00;;;;;;;15.60;8.60;;;;;;;23.46;49.69;101386.69;5125650;28;20043;-71
2022/10/11 09:34:32;;;;;;;15.88;10.10;;;;;;;23.31;49.01;101391.00;5126296;28;20047;-71
2022/10/11 09:37:22;;;;;;;17.60;9.52;;;;;;;23.26;48.86;101391.19;5128402;27;20052;-70
2022/10/11 09:39:57;;;;;;;15.73;10.30;;;;;;;23.81;47.62;101398.53;5128933;28;20055;-70
2022/10/11 09:42:25;;;;;;;15.35;9.77;;;;;;;24.24;48.05;101399.06;5128484;27;20052;-70
2022/10/11 09:44:56;;;;;;;17.88;9.68;;;;;;;24.19;46.79;101400.09;5128552;28;20046;-70
2022/10/11 09:47:29;;;;;;;14.02;8.98;;;;;;;24.22;47.50;101398.59;5126519;27;20669;-70
2022/10/11 09:50:02;;;;;;;16.98;10.55;;;;;;;24.43;48.41;101393.63;5128525;27;20051;-71
2022/10/11 09:52:33;;;;;;;16.73;9.45;;;;;;;24.67;46.84;101397.47;5128362;27;20058;-70
2022/10/11 09:55:02;;;;;;;14.55;9.38;;;;;;;24.25;47.36;101398.69;5128027;27;20436;-71
2022/10/11 09:57:36;;;;;;;17.30;9.32;;;;;;;24.11;47.49;101396.31;5114573;28;20043;-70
2022/10/11 10:00:07;;;;;;;17.60;9.57;;;;;;;23.88;48.42;101398.75;5127763;27;20481;-71
2022/10/11 10:02:52;;;;;;;17.20;9.73;;;;;;;23.57;48.48;101392.63;5127403;28;20051;-71
2022/10/11 10:05:26;;;;;;;17.27;9.63;;;;;;;23.83;48.63;101394.22;5128053;28;20054;-71
2022/10/11 10:08:19;;;;;;;16.98;10.23;;;;;;;23.40;49.13;101395.66;5113322;28;20058;-71
2022/10/11 10:11:02;;;;;;;18.88;10.10;;;;;;;23.51;49.58;101396.81;5125127;28;20093;-71
2022/10/11 10:13:50;;;;;;;22.50;12.25;;;;;;;24.05;48.80;101394.88;5108200;28;20051;-70
2022/10/11 10:16:27;;;;;;;20.98;9.90;;;;;;;24.05;48.31;101394.88;5123231;28;20035;-71
2022/10/11 10:18:58;;;;;;;16.60;9.85;;;;;;;24.60;46.42;101386.09;5128558;28;20488;-70
2022/10/11 10:21:36;;;;;;;15.60;10.10;;;;;;;24.61;46.73;101381.28;5128498;28;20054;-71
2022/10/11 10:24:17;;;;;;;15.68;9.40;;;;;;;24.67;46.43;101385.47;5128795;28;20051;-71
2022/10/11 10:27:17;;;;;;;15.70;10.10;;;;;;;24.15;48.02;101394.41;5110092;28;20374;-71
2022/10/11 10:30:08;;;;;;;13.82;9.32;;;;;;;23.89;47.54;101390.03;5128448;28;20055;-71
2022/10/11 10:32:47;;;;;;;16.63;9.18;;;;;;;24.18;47.30;101392.91;5127246;27;20050;-71
2022/10/11 10:35:24;;;;;;;17.23;9.90;;;;;;;24.33;47.15;101404.50;5116672;27;20059;-71
2022/10/11 10:38:19;;;;;;;17.17;9.07;;;;;;;24.18;47.19;101400.47;5112633;28;20055;-71
2022/10/11 10:40:57;;;;;;;14.85;9.07;;;;;;;24.14;47.61;101406.78;5113950;28;20490;-71
2022/10/11 10:43:29;;;;;;;13.93;8.57;;;;;;;24.16;47.76;101406.41;5113457;28;20043;-71
2022/10/11 10:46:18;;;;;;;12.05;8.63;;;;;;;24.02;47.68;101395.59;5114189;28;20046;-70
2022/10/11 10:49:18;;;;;;;13.77;8.90;;;;;;;24.41;48.42;101389.56;5114606;28;20397;-71
2022/10/11 10:52:46;;;;;;;18.75;9.20;;;;;;;24.31;47.49;101395.66;5099511;28;20055;-70
2022/10/11 10:55:44;;;;;;;16.50;9.65;;;;;;;24.18;47.58;101381.72;5114654;28;20044;-70
2022/10/11 10:58:32;;;;;;;19.15;10.60;;;;;;;23.76;49.40;101382.84;5114352;28;20051;-70
2022/10/11 11:01:14;;;;;;;15.10;9.50;;;;;;;24.11;48.68;101384.31;5111105;28;20044;-71
2022/10/11 11:03:49;;;;;;;17.60;9.07;;;;;;;23.82;48.88;101380.59;5103099;28;20048;-70
2022/10/11 11:06:41;;;;;;;16.83;9.20;;;;;;;23.98;48.39;101381.50;5090670;28;20414;-69
2022/10/11 11:09:44;;;;;;;16.42;9.63;;;;;;;24.12;46.53;101372.78;5107148;28;20513;-70
2022/10/11 11:12:34;;;;;;;14.68;8.48;;;;;;;23.46;47.91;101371.94;5109685;28;20055;-70
2022/10/11 11:15:14;;;;;;;14.88;9.15;;;;;;;23.92;47.75;101382.09;5105675;28;20052;-69
2022/10/11 11:17:59;;;;;;;15.10;8.40;;;;;;;24.48;46.24;101374.97;5112119;28;20051;-69
2022/10/11 11:20:46;;;;;;;19.63;9.40;;;;;;;23.95;46.85;101376.59;5092817;28;20059;-70
2022/10/11 11:23:17;;;;;;;16.45;9.45;;;;;;;24.41;47.12;101376.41;5110403;28;20506;-70
2022/10/11 11:25:47;;;;;;;16.98;9.23;;;;;;;24.62;46.63;101380.94;5112319;28;20078;-69
2022/10/11 11:28:40;;;;;;;16.13;9.95;;;;;;;24.28;45.95;101381.22;5107739;28;20046;-69
2022/10/11 11:32:04;;;;;;;17.35;9.48;;;;;;;23.94;48.91;101374.19;5113555;28;20065;-69
2022/10/11 11:34:48;;;;;;;14.40;9.75;;;;;;;23.48;48.66;101376.00;5040403;28;20072;-70
2022/10/11 11:37:37;;;;;;;19.70;10.50;;;;;;;23.28;48.96;101368.50;5102943;28;20047;-70
2022/10/11 11:40:12;;;;;;;15.88;9.75;;;;;;;23.47;48.74;101376.34;5113093;28;20058;-69
2022/10/11 11:42:47;;;;;;;15.27;9.38;;;;;;;23.84;48.05;101378.25;5113253;28;20047;-69
2022/10/11 11:45:25;;;;;;;12.05;8.65;;;;;;;23.98;46.99;101370.31;5111904;28;20398;-70
2022/10/11 11:48:03;;;;;;;16.23;9.85;;;;;;;23.88;47.99;101368.00;5111632;28;20505;-69
2022/10/11 11:50:38;;;;;;;15.23;9.50;;;;;;;24.33;46.90;101371.75;5112339;28;20040;-70
2022/10/11 11:53:14;;;;;;;16.13;10.02;;;;;;;24.14;46.78;101369.59;5112795;28;20058;-70
2022/10/11 11:55:48;;;;;;;15.63;9.50;;;;;;;24.11;47.37;101368.34;5112768;28;20062;-70
2022/10/11 11:58:34;;;;;;;14.77;9.10;;;;;;;24.12;47.15;101378.38;5111723;28;20048;-69
2022/10/11 12:01:23;;;;;;;17.05;9.90;;;;;;;24.73;47.16;101375.63;5099546;28;20047;-70
2022/10/11 12:04:03;;;;;;;21.25;9.45;;;;;;;24.98;45.94;101377.50;5112089;28;20051;-70
2022/10/11 12:06:33;;;;;;;14.70;9.35;;;;;;;24.41;45.91;101373.59;5099509;28;20047;-70
2022/10/11 12:09:21;;;;;;;20.23;10.00;;;;;;;24.67;46.02;101379.88;5106711;28;20047;-70
2022/10/11 12:12:00;;;;;;;14.10;8.40;;;;;;;24.73;45.53;101372.03;5101156;28;20074;-70
2022/10/11 12:14:30;;;;;;;15.77;9.40;;;;;;;24.73;46.11;101372.03;5112792;28;20071;-70
2022/10/11 12:17:21;;;;;;;16.98;9.25;;;;;;;25.14;46.43;101364.34;5112995;28;20110;-70
2022/10/11 12:20:02;;;;;;;17.67;10.02;;;;;;;25.36;44.61;101371.28;5106893;28;20040;-70
2022/10/11 12:22:30;;;;;;;19.80;9.25;;;;;;;25.00;45.60;101364.78;5236384;22;20391;-68
2022/10/11 12:25:20;;;;;;;17.77;11.10;;;;;;;25.37;44.13;101369.28;5052840;28;20395;-68
2022/10/11 12:27:53;;;;;;;17.38;10.95;;;;;;;25.92;44.08;101364.94;5051065;28;20048;-67
2022/10/11 12:30:43;;;;;;;14.88;9.15;;;;;;;25.72;43.68;101357.28;5042582;28;20053;-67
2022/10/11 12:33:13;;;;;;;17.98;9.85;;;;;;;26.23;43.00;101360.41;5051536;28;20045;-68
2022/10/11 12:35:53;;;;;;;19.35;9.73;;;;;;;26.73;41.11;101356.94;5042837;28;20041;-68
2022/10/11 12:38:23;;;;;;;16.33;9.55;;;;;;;27.02;41.60;101357.50;5050820;28;20041;-68
2022/10/11 12:40:55;;;;;;;13.82;8.40;;;;;;;26.40;41.04;101350.72;5049856;28;20403;-68